Time;durP1;ratioP1;P1;durP2;ratioP2;P2;SDS_P1;SDS_P2;PMS_P1;PMS_P2;Temp;Humidity;BMP_temperature;BMP_pressure;BME280_temperature;BME280_humidity;BME280_pressure;Samples;Min_cycle;Max_cycle;Signal;HPM_P1;HPM_P2
2022/05/20 00:02:14;;;;;;;12.77;4.85;;;12.30;99.90;;;;;;5045034;28;20025;-69
2022/05/20 00:04:40;;;;;;;10.75;5.40;;;12.30;99.90;;;;;;5054877;28;20414;-68
2022/05/20 00:07:06;;;;;;;49.47;8.77;;;12.30;99.90;;;;;;5052904;28;20036;-70
2022/05/20 00:09:32;;;;;;;22.42;6.72;;;12.40;99.90;;;;;;5053798;28;20025;-70
2022/05/20 00:11:58;;;;;;;12.80;5.43;;;12.30;99.90;;;;;;5052275;28;20421;-70
2022/05/20 00:14:24;;;;;;;14.75;5.05;;;12.30;99.90;;;;;;5044964;28;20471;-71
2022/05/20 00:16:50;;;;;;;12.48;5.47;;;12.30;99.90;;;;;;5053645;28;20078;-71
2022/05/20 00:19:16;;;;;;;13.85;5.65;;;12.20;99.90;;;;;;5053462;28;20080;-69
2022/05/20 00:21:42;;;;;;;20.83;5.82;;;12.20;99.90;;;;;;5053552;28;20352;-71
2022/05/20 00:24:08;;;;;;;11.63;5.97;;;12.20;99.90;;;;;;5053355;28;20036;-71
2022/05/20 00:26:34;;;;;;;13.20;5.05;;;12.10;99.90;;;;;;5053575;28;20021;-72
2022/05/20 00:29:00;;;;;;;14.20;5.38;;;12.00;99.90;;;;;;5053390;28;20471;-71
2022/05/20 00:31:27;;;;;;;12.57;5.15;;;12.00;99.90;;;;;;5053198;28;20036;-71
2022/05/20 00:33:53;;;;;;;15.27;4.43;;;11.90;99.90;;;;;;5052083;28;20025;-72
2022/05/20 00:36:19;;;;;;;11.82;4.13;;;11.80;99.90;;;;;;5053470;28;20052;-70
2022/05/20 00:38:46;;;;;;;10.60;4.85;;;11.70;99.90;;;;;;5053233;28;20025;-70
2022/05/20 00:41:13;;;;;;;13.90;5.18;;;11.40;99.90;;;;;;5053166;28;20067;-71
2022/05/20 00:43:47;;;;;;;8.07;4.35;;;11.40;99.90;;;;;;5053109;28;20092;-70
2022/05/20 00:46:20;;;;;;;10.52;4.45;;;11.40;99.90;;;;;;5052717;28;20025;-70
2022/05/20 00:48:47;;;;;;;9.65;4.30;;;11.40;99.90;;;;;;5053219;28;20383;-69
2022/05/20 00:51:36;;;;;;;8.70;4.10;;;11.40;99.90;;;;;;5039221;28;20026;-70
2022/05/20 00:54:20;;;;;;;7.85;4.35;;;11.50;99.90;;;;;;5033025;28;20025;-72
2022/05/20 00:57:08;;;;;;;11.35;4.20;;;11.50;99.90;;;;;;5032773;28;20265;-70
2022/05/20 00:59:38;;;;;;;9.73;4.38;;;11.50;99.90;;;;;;5045309;28;20020;-71
2022/05/20 01:02:12;;;;;;;13.90;5.43;;;11.50;99.90;;;;;;5072612;28;20391;-72
2022/05/20 01:04:39;;;;;;;14.85;6.40;;;11.50;99.90;;;;;;5043643;28;20040;-72
2022/05/20 01:07:06;;;;;;;13.10;5.40;;;11.40;99.90;;;;;;5032875;28;20053;-72
2022/05/20 01:09:35;;;;;;;9.55;4.90;;;11.50;99.90;;;;;;5033753;28;20103;-70
2022/05/20 01:12:01;;;;;;;8.80;4.40;;;11.50;99.90;;;;;;5047664;28;20029;-70
2022/05/20 01:14:27;;;;;;;11.82;5.43;;;11.40;99.90;;;;;;5052679;28;20037;-69
2022/05/20 01:16:53;;;;;;;11.20;5.10;;;11.30;99.90;;;;;;5052423;28;20029;-72
2022/05/20 01:19:33;;;;;;;8.63;4.85;;;11.30;99.90;;;;;;5052361;28;20071;-71
2022/05/20 01:22:05;;;;;;;9.88;4.50;;;11.20;99.90;;;;;;5050730;28;20474;-72
2022/05/20 01:24:31;;;;;;;8.60;4.40;;;11.10;99.90;;;;;;5050733;28;20052;-71
2022/05/20 01:27:00;;;;;;;10.23;5.07;;;11.10;99.90;;;;;;5052291;28;20036;-71
2022/05/20 01:29:28;;;;;;;12.45;6.07;;;11.00;99.90;;;;;;5042892;28;20467;-70
2022/05/20 01:31:54;;;;;;;10.23;5.68;;;11.00;99.90;;;;;;5033538;28;20048;-71
2022/05/20 01:34:20;;;;;;;14.52;7.28;;;10.90;99.90;;;;;;5033605;28;20040;-72
2022/05/20 01:36:46;;;;;;;17.08;7.70;;;10.80;99.90;;;;;;5032255;28;20021;-71
2022/05/20 01:39:17;;;;;;;12.52;6.50;;;10.80;99.90;;;;;;5033279;28;20400;-71
2022/05/20 01:41:51;;;;;;;11.40;6.78;;;10.70;99.90;;;;;;5032268;28;20034;-71
2022/05/20 01:44:31;;;;;;;15.20;6.50;;;10.70;99.90;;;;;;5032387;28;20076;-70
2022/05/20 01:47:03;;;;;;;13.20;6.25;;;10.50;99.90;;;;;;5032013;28;20056;-71
2022/05/20 01:49:55;;;;;;;15.57;5.40;;;10.60;99.90;;;;;;5040443;28;20025;-72
2022/05/20 01:52:25;;;;;;;11.43;6.30;;;10.60;99.90;;;;;;5051854;28;20410;-71
2022/05/20 01:55:08;;;;;;;13.30;5.72;;;10.60;99.90;;;;;;5051936;28;20031;-71
2022/05/20 01:57:41;;;;;;;11.13;6.10;;;10.50;99.90;;;;;;5044247;28;20025;-70
2022/05/20 02:00:11;;;;;;;;;;;10.50;99.90;;;;;;5050580;28;20052;-70
2022/05/20 02:03:19;;;;;;;11.13;6.45;;;10.50;99.90;;;;;;5052346;28;19916;-70
2022/05/20 02:05:54;;;;;;;14.75;6.38;;;10.50;99.90;;;;;;5050389;28;20029;-69
2022/05/20 02:08:31;;;;;;;11.77;6.63;;;10.50;99.90;;;;;;5051544;28;20074;-71
2022/05/20 02:11:20;;;;;;;15.27;6.82;;;10.50;99.90;;;;;;5051637;28;20375;-69
2022/05/20 02:13:53;;;;;;;11.60;5.80;;;10.50;99.90;;;;;;5051246;28;20029;-70
2022/05/20 02:16:25;;;;;;;15.18;7.28;;;10.50;99.90;;;;;;5042377;28;20025;-71
2022/05/20 02:18:59;;;;;;;12.02;6.70;;;10.50;99.90;;;;;;5031541;28;20093;-70
2022/05/20 02:21:29;;;;;;;15.10;7.82;;;10.50;99.90;;;;;;5031540;28;20039;-71
2022/05/20 02:23:58;;;;;;;13.05;7.55;;;10.50;99.90;;;;;;5031476;28;20099;-71
2022/05/20 02:26:28;;;;;;;15.75;8.32;;;10.50;99.90;;;;;;5041043;28;20021;-72
2022/05/20 02:29:13;;;;;;;15.30;6.93;;;10.50;99.90;;;;;;5051659;28;20414;-71
2022/05/20 02:32:06;;;;;;;11.32;6.05;;;10.50;99.90;;;;;;5051587;28;20025;-71
2022/05/20 02:34:34;;;;;;;14.38;7.13;;;10.50;99.90;;;;;;5042092;28;20026;-71
2022/05/20 02:37:32;;;;;;;14.25;6.63;;;10.50;99.90;;;;;;5030496;28;20448;-71
2022/05/20 02:39:58;;;;;;;15.90;6.32;;;10.40;99.90;;;;;;5031649;28;20403;-71
2022/05/20 02:42:27;;;;;;;16.20;6.55;;;10.40;99.90;;;;;;5031542;28;20021;-71
2022/05/20 02:44:54;;;;;;;11.95;6.20;;;10.40;99.90;;;;;;5032439;28;20049;-72
2022/05/20 02:47:20;;;;;;;11.50;6.25;;;10.40;99.90;;;;;;5031425;28;20050;-72
2022/05/20 02:49:46;;;;;;;10.63;6.57;;;10.40;99.90;;;;;;5031337;28;20040;-71
2022/05/20 02:52:12;;;;;;;11.38;7.20;;;10.40;99.90;;;;;;5031396;28;20093;-69
2022/05/20 02:54:38;;;;;;;13.55;6.93;;;10.40;99.90;;;;;;5032059;28;20040;-70
2022/05/20 02:57:07;;;;;;;16.48;6.95;;;10.30;99.90;;;;;;5031451;28;20022;-72
2022/05/20 03:05:01;;;;;;;13.20;6.35;;;10.40;99.90;;;;;;5049403;28;20033;-68
2022/05/20 03:07:27;;;;;;;11.55;6.50;;;10.40;99.90;;;;;;5050517;28;20044;-71
2022/05/20 03:09:53;;;;;;;12.38;6.55;;;10.30;99.90;;;;;;5050329;28;20024;-72
2022/05/20 03:12:19;;;;;;;14.23;6.82;;;10.20;99.90;;;;;;5044013;28;20032;-69
2022/05/20 03:14:46;;;;;;;12.32;6.68;;;10.20;99.90;;;;;;5049512;28;20545;-69
2022/05/20 03:17:16;;;;;;;12.57;6.10;;;10.20;99.90;;;;;;5031156;28;20040;-71
2022/05/20 03:19:42;;;;;;;10.43;5.93;;;10.30;99.90;;;;;;5031017;28;20034;-71
2022/05/20 03:22:08;;;;;;;10.70;6.07;;;10.30;99.90;;;;;;5039334;28;20542;-71
2022/05/20 03:24:37;;;;;;;11.13;6.45;;;10.20;99.90;;;;;;5050174;28;20474;-71
2022/05/20 03:27:03;;;;;;;10.13;5.43;;;10.20;99.90;;;;;;5054215;28;20029;-71
2022/05/20 03:29:32;;;;;;;12.80;7.80;;;10.20;99.90;;;;;;5052176;28;20029;-72
2022/05/20 03:31:58;;;;;;;13.65;5.97;;;10.20;99.90;;;;;;5054302;28;20103;-69
2022/05/20 03:34:24;;;;;;;13.80;6.82;;;10.20;99.90;;;;;;5053339;28;20044;-70
2022/05/20 03:36:50;;;;;;;12.38;6.72;;;10.90;99.90;;;;;;5054331;28;20021;-71
2022/05/20 03:39:24;;;;;;;14.50;6.90;;;11.80;99.90;;;;;;5052435;28;20038;-67
2022/05/20 03:41:51;;;;;;;11.45;5.97;;;12.70;99.90;;;;;;5034268;28;20064;-71
2022/05/20 03:44:19;;;;;;;15.07;6.45;;;13.30;99.90;;;;;;5034251;28;20121;-73
2022/05/20 03:46:47;;;;;;;9.63;5.38;;;14.50;99.90;;;;;;5045080;28;20037;-70
2022/05/20 03:49:15;;;;;;;9.02;5.57;;;15.60;95.00;;;;;;5054184;28;20040;-72
2022/05/20 03:51:45;;;;;;;13.23;5.53;;;16.50;91.30;;;;;;5054061;28;20074;-71
2022/05/20 03:54:11;;;;;;;11.18;5.32;;;16.90;87.10;;;;;;5053958;28;20545;-71
2022/05/20 03:56:40;;;;;;;10.77;6.22;;;16.70;85.10;;;;;;5052025;28;20017;-71
2022/05/20 03:59:08;;;;;;;14.52;6.55;;;17.20;84.50;;;;;;5053683;28;20033;-72
2022/05/20 04:01:59;;;;;;;13.70;6.50;;;18.20;80.70;;;;;;5053963;28;20033;-71
2022/05/20 04:04:25;;;;;;;10.63;5.60;;;18.80;77.70;;;;;;5052020;28;20025;-71
2022/05/20 04:06:51;;;;;;;15.63;6.70;;;19.60;74.60;;;;;;5041426;28;20032;-72
2022/05/20 04:09:20;;;;;;;19.15;6.60;;;19.60;73.80;;;;;;5042401;28;20089;-70
2022/05/20 04:11:49;;;;;;;16.67;6.95;;;19.80;72.50;;;;;;5033145;28;20116;-71
2022/05/20 04:14:15;;;;;;;14.82;6.88;;;19.90;71.80;;;;;;5034028;28;20426;-72
2022/05/20 04:16:41;;;;;;;15.10;6.97;;;20.10;72.00;;;;;;5033344;28;20026;-65
2022/05/20 04:19:07;;;;;;;12.38;6.22;;;20.60;70.00;;;;;;5033304;28;20136;-72
2022/05/20 04:21:32;;;;;;;14.75;6.72;;;21.30;68.30;;;;;;5033347;28;20038;-72
2022/05/20 04:24:00;;;;;;;10.60;6.60;;;21.50;66.80;;;;;;5033446;28;20670;-73
2022/05/20 04:26:27;;;;;;;13.80;7.03;;;21.90;66.30;;;;;;5033486;28;20037;-73
2022/05/20 04:28:52;;;;;;;11.50;5.90;;;22.20;66.00;;;;;;5033155;28;20033;-71
2022/05/20 04:31:18;;;;;;;15.00;7.45;;;22.50;65.20;;;;;;5034292;28;20025;-72
2022/05/20 04:33:44;;;;;;;13.10;6.22;;;22.10;64.30;;;;;;5033626;28;20038;-69
2022/05/20 04:36:10;;;;;;;13.45;7.13;;;22.70;64.30;;;;;;5032841;28;20029;-68
2022/05/20 04:38:36;;;;;;;12.30;6.13;;;22.90;64.20;;;;;;5051909;28;20635;-71
2022/05/20 04:49:15;;;;;;;15.07;6.60;;;24.80;60.90;;;;;;5032686;28;20040;-72
2022/05/20 04:51:41;;;;;;;13.65;5.63;;;24.80;60.40;;;;;;5032434;28;20386;-73
2022/05/20 04:56:53;;;;;;;14.77;6.13;;;24.20;59.70;;;;;;5036712;28;20025;-73
2022/05/20 04:59:24;;;;;;;14.30;6.38;;;22.20;62.50;;;;;;5052641;28;20029;-72
2022/05/20 05:01:50;;;;;;;12.60;5.95;;;20.90;64.80;;;;;;5052623;28;20371;-72
2022/05/20 05:04:17;;;;;;;12.70;6.93;;;20.30;68.10;;;;;;5052404;28;20039;-71
2022/05/20 05:06:47;;;;;;;15.48;6.85;;;19.80;68.60;;;;;;5048923;28;20032;-71
2022/05/20 05:09:13;;;;;;;13.40;6.18;;;19.40;69.80;;;;;;5032684;28;20376;-72
2022/05/20 05:11:40;;;;;;;12.25;5.50;;;19.20;70.10;;;;;;5032299;28;20040;-72
2022/05/20 05:14:10;;;;;;;12.80;5.88;;;19.00;70.20;;;;;;5032398;28;20242;-71
2022/05/20 05:16:38;;;;;;;19.92;6.45;;;18.60;71.20;;;;;;5033279;28;20060;-70
2022/05/20 05:19:05;;;;;;;12.52;5.75;;;18.50;72.10;;;;;;5051845;28;20083;-71
2022/05/20 05:21:30;;;;;;;11.30;5.97;;;18.50;72.10;;;;;;5052067;28;20596;-72
2022/05/20 05:24:00;;;;;;;15.20;6.43;;;18.60;72.10;;;;;;5052086;28;20057;-68
2022/05/20 05:26:35;;;;;;;11.88;6.30;;;18.60;73.00;;;;;;5051455;28;20082;-71
2022/05/20 05:29:03;;;;;;;12.80;6.15;;;18.60;73.20;;;;;;5032117;28;20383;-71
2022/05/20 05:31:29;;;;;;;13.88;5.40;;;18.80;73.80;;;;;;5031540;28;20074;-71
2022/05/20 05:33:55;;;;;;;12.88;5.40;;;18.90;74.10;;;;;;5033021;28;20098;-72
2022/05/20 05:36:21;;;;;;;12.38;5.45;;;18.90;75.40;;;;;;5031759;28;20464;-73
2022/05/20 05:38:47;;;;;;;16.38;5.85;;;19.20;75.20;;;;;;5032739;28;20021;-71
2022/05/20 05:41:14;;;;;;;11.70;5.82;;;19.10;75.20;;;;;;5031451;28;20112;-72
2022/05/20 05:43:39;;;;;;;13.07;6.53;;;19.40;77.00;;;;;;5031624;28;20033;-71
2022/05/20 05:46:05;;;;;;;14.93;6.53;;;19.20;78.40;;;;;;5031744;28;20026;-71
2022/05/20 05:48:31;;;;;;;14.40;7.03;;;19.10;79.90;;;;;;5030979;28;20049;-72
2022/05/20 05:50:58;;;;;;;14.93;6.45;;;19.30;80.60;;;;;;5031849;28;20057;-70
2022/05/20 05:53:25;;;;;;;17.80;7.00;;;19.10;81.30;;;;;;5031531;28;20047;-72
2022/05/20 05:55:58;;;;;;;13.43;6.07;;;19.60;84.20;;;;;;5031823;28;20534;-72
2022/05/20 05:58:28;;;;;;;13.00;6.07;;;19.50;83.10;;;;;;5031439;28;20083;-70
2022/05/20 06:00:55;;;;;;;11.80;6.35;;;19.00;80.60;;;;;;5031620;28;20389;-72
2022/05/20 06:03:25;;;;;;;16.35;5.95;;;19.50;77.50;;;;;;5033438;28;20033;-72
2022/05/20 06:05:51;;;;;;;16.20;5.68;;;19.10;76.00;;;;;;5051398;28;20029;-72
2022/05/20 06:08:17;;;;;;;23.63;6.22;;;19.30;76.30;;;;;;5048358;28;20479;-71
2022/05/20 06:10:44;;;;;;;22.00;5.63;;;19.40;74.70;;;;;;5049961;28;20070;-71
2022/05/20 06:13:14;;;;;;;28.83;6.53;;;19.80;77.90;;;;;;5050638;28;20029;-70
2022/05/20 06:15:42;;;;;;;15.60;5.85;;;19.90;80.50;;;;;;5031383;28;20033;-71
2022/05/20 06:18:08;;;;;;;14.57;5.35;;;20.20;79.00;;;;;;5030903;28;20029;-69
2022/05/20 06:20:34;;;;;;;16.15;5.93;;;20.20;78.20;;;;;;5030907;28;20065;-72
2022/05/20 06:23:01;;;;;;;15.35;5.63;;;20.30;76.30;;;;;;5032966;28;20101;-71
2022/05/20 06:25:27;;;;;;;10.70;4.70;;;20.50;75.00;;;;;;5051170;28;20033;-72
2022/05/20 06:27:54;;;;;;;12.80;4.95;;;20.40;74.80;;;;;;5050968;28;20017;-71
2022/05/20 06:30:21;;;;;;;11.30;4.72;;;20.70;75.00;;;;;;5051475;28;20033;-72
2022/05/20 06:32:47;;;;;;;8.80;4.03;;;20.40;75.30;;;;;;5048800;28;20025;-70
2022/05/20 06:41:14;;;;;;;11.88;5.35;;;21.30;75.20;;;;;;5030906;28;20029;-71
2022/05/20 06:43:39;;;;;;;10.15;4.13;;;21.50;72.60;;;;;;5030918;28;20025;-71
2022/05/20 06:46:07;;;;;;;9.93;4.47;;;21.70;74.70;;;;;;5031283;28;20049;-72
2022/05/20 06:48:54;;;;;;;8.52;3.85;;;22.10;72.70;;;;;;5033675;28;20451;-73
2022/05/20 06:51:23;;;;;;;9.20;4.55;;;22.10;69.00;;;;;;5050558;28;20028;-72
2022/05/20 06:53:52;;;;;;;12.10;5.43;;;22.40;71.30;;;;;;5050893;28;20027;-72
2022/05/20 06:56:19;;;;;;;8.68;5.03;;;21.80;68.00;;;;;;5050857;28;20025;-72
2022/05/20 06:58:45;;;;;;;10.13;4.53;;;22.10;68.90;;;;;;5044832;28;20018;-72
2022/05/20 07:01:12;;;;;;;12.13;4.60;;;21.80;67.60;;;;;;5034881;28;20041;-72
2022/05/20 07:03:38;;;;;;;11.60;4.93;;;22.00;67.90;;;;;;5035073;28;20026;-73
2022/05/20 07:06:05;;;;;;;10.02;4.22;;;22.10;66.80;;;;;;5034224;28;20033;-72
2022/05/20 07:08:34;;;;;;;7.50;4.18;;;22.30;67.00;;;;;;5040006;28;20025;-68
2022/05/20 07:11:01;;;;;;;11.45;4.90;;;22.40;66.60;;;;;;5052822;28;20025;-72
2022/05/20 07:13:31;;;;;;;8.57;4.05;;;22.70;65.90;;;;;;5053803;28;20048;-72
2022/05/20 07:15:58;;;;;;;12.80;5.07;;;23.00;66.00;;;;;;5039837;28;20029;-72
2022/05/20 07:18:28;;;;;;;14.95;5.55;;;23.10;66.40;;;;;;5034055;28;20033;-72
2022/05/20 07:20:54;;;;;;;10.18;4.55;;;23.00;64.70;;;;;;5033351;28;20077;-72
2022/05/20 07:23:24;;;;;;;12.02;4.53;;;23.10;66.60;;;;;;5034010;28;20040;-73
2022/05/20 07:25:50;;;;;;;9.43;4.22;;;23.30;65.70;;;;;;5034044;28;20029;-72
2022/05/20 07:28:17;;;;;;;12.65;5.00;;;23.70;65.70;;;;;;5034382;28;20556;-71
2022/05/20 07:30:43;;;;;;;10.93;4.20;;;23.90;64.00;;;;;;5036286;28;20475;-71
2022/05/20 07:33:09;;;;;;;13.90;4.55;;;24.00;65.50;;;;;;5042938;28;20040;-67
2022/05/20 07:35:36;;;;;;;15.43;5.43;;;23.90;63.80;;;;;;5035349;28;20021;-72
2022/05/20 07:38:02;;;;;;;8.57;3.95;;;24.10;63.30;;;;;;5033861;28;20091;-72
2022/05/20 07:40:29;;;;;;;14.00;3.83;;;24.20;63.90;;;;;;5034140;28;20042;-72
2022/05/20 07:42:55;;;;;;;10.52;3.92;;;23.80;62.70;;;;;;5033861;28;20022;-72
2022/05/20 07:45:21;;;;;;;17.38;4.40;;;23.60;63.50;;;;;;5043542;28;20112;-72
2022/05/20 07:47:47;;;;;;;16.50;4.18;;;24.10;64.30;;;;;;5042671;28;20053;-72
2022/05/20 07:50:14;;;;;;;11.50;4.45;;;23.60;63.00;;;;;;5033526;28;20079;-71
2022/05/20 07:55:32;;;;;;;14.25;4.70;;;24.00;63.30;;;;;;5033853;28;20133;-72
2022/05/20 07:58:00;;;;;;;11.20;4.22;;;24.50;63.20;;;;;;5033715;28;20033;-72
2022/05/20 08:00:26;;;;;;;11.13;4.47;;;24.10;61.80;;;;;;5034322;28;20487;-72
2022/05/20 08:02:56;;;;;;;10.35;4.82;;;23.90;61.90;;;;;;5034264;28;20037;-72
2022/05/20 08:05:22;;;;;;;11.07;4.57;;;24.00;61.00;;;;;;5031582;28;20126;-72
2022/05/20 08:07:49;;;;;;;12.85;4.28;;;24.50;60.80;;;;;;5033674;28;20026;-72
2022/05/20 08:10:16;;;;;;;14.68;3.75;;;24.60;60.00;;;;;;5032795;28;20487;-73
2022/05/20 08:12:42;;;;;;;14.00;4.60;;;24.50;58.40;;;;;;5034472;28;20025;-72
2022/05/20 08:15:09;;;;;;;12.18;4.32;;;24.40;57.60;;;;;;5034517;28;20036;-72
2022/05/20 08:17:39;;;;;;;12.00;4.38;;;24.90;57.10;;;;;;5037906;28;20021;-73
2022/05/20 08:20:13;;;;;;;9.93;4.47;;;25.10;56.80;;;;;;5034451;28;20538;-72
2022/05/20 08:22:39;;;;;;;15.35;4.68;;;25.30;56.50;;;;;;5034202;28;20033;-73
2022/05/20 08:25:05;;;;;;;10.82;5.70;;;25.30;57.10;;;;;;5042265;28;20031;-70
2022/05/20 08:27:32;;;;;;;28.30;14.25;;;26.00;57.20;;;;;;5053327;28;20108;-73
2022/05/20 08:30:01;;;;;;;38.47;17.77;;;25.70;57.90;;;;;;5051961;28;20456;-72
2022/05/20 08:32:27;;;;;;;15.90;6.25;;;25.70;55.20;;;;;;5053524;28;20029;-71
2022/05/20 08:34:53;;;;;;;16.60;9.27;;;25.60;56.00;;;;;;5050476;28;20487;-73
2022/05/20 08:37:19;;;;;;;14.30;7.00;;;26.10;57.40;;;;;;5052913;28;20028;-71
2022/05/20 08:39:45;;;;;;;9.77;3.95;;;26.10;55.60;;;;;;5052977;28;20033;-72
2022/05/20 08:42:20;;;;;;;11.18;3.25;;;25.90;54.60;;;;;;5043105;28;20547;-72
2022/05/20 08:44:48;;;;;;;8.63;3.55;;;25.20;54.50;;;;;;5032720;28;20100;-72
2022/05/20 08:47:22;;;;;;;12.02;3.70;;;24.90;55.20;;;;;;5049963;28;20116;-72
2022/05/20 08:49:50;;;;;;;16.20;7.82;;;25.00;54.60;;;;;;5033462;28;20041;-72
2022/05/20 08:52:17;;;;;;;12.77;4.82;;;25.30;55.20;;;;;;5032886;28;20104;-72
2022/05/20 08:54:42;;;;;;;10.05;4.45;;;25.50;55.10;;;;;;5032704;28;20025;-71
2022/05/20 08:57:18;;;;;;;11.40;3.45;;;25.00;55.00;;;;;;5032610;28;20151;-72
2022/05/20 08:59:44;;;;;;;21.45;5.82;;;25.70;56.40;;;;;;5033566;28;20034;-71
2022/05/20 09:02:10;;;;;;;12.93;5.32;;;25.50;57.00;;;;;;5032884;28;20349;-70
2022/05/20 09:04:36;;;;;;;11.15;4.28;;;26.00;56.40;;;;;;5032782;28;20476;-72
2022/05/20 09:07:09;;;;;;;9.75;4.68;;;26.00;55.60;;;;;;5033489;28;20102;-72
2022/05/20 09:09:56;;;;;;;20.05;4.38;;;26.00;53.80;;;;;;5034013;28;20861;-68
2022/05/20 09:12:38;;;;;;;15.10;4.95;;;26.10;54.50;;;;;;5044636;28;20029;-64
2022/05/20 09:18:13;;;;;;;8.70;3.13;;;25.90;54.90;;;;;;5032872;28;20406;-69
2022/05/20 09:20:48;;;;;;;16.65;6.05;;;25.90;56.60;;;;;;5056462;28;20037;-71
2022/05/20 09:23:20;;;;;;;11.65;3.80;;;26.20;53.40;;;;;;5033599;28;20410;-70
2022/05/20 09:26:04;;;;;;;10.43;4.38;;;26.70;55.60;;;;;;5040279;28;20029;-69
2022/05/20 09:28:59;;;;;;;16.42;3.83;;;26.80;54.20;;;;;;5063667;28;20056;-71
2022/05/20 09:31:37;;;;;;;11.40;4.05;;;26.40;52.00;;;;;;5042559;28;20041;-70
2022/05/20 09:34:24;;;;;;;5.35;3.45;;;26.80;52.50;;;;;;5035622;28;20026;-70
2022/05/20 09:37:25;;;;;;;8.60;3.17;;;26.80;52.90;;;;;;5035067;28;20036;-71
2022/05/20 09:39:51;;;;;;;7.15;3.22;;;27.00;52.60;;;;;;5043382;28;20029;-69
2022/05/20 09:42:21;;;;;;;7.45;2.95;;;26.90;51.30;;;;;;5035030;28;20025;-70
2022/05/20 09:44:48;;;;;;;8.57;2.53;;;27.00;48.90;;;;;;5045044;28;20041;-70
2022/05/20 09:47:30;;;;;;;6.60;2.72;;;27.10;46.20;;;;;;5030381;28;20049;-66
2022/05/20 09:50:04;;;;;;;5.00;2.80;;;27.10;47.20;;;;;;5033541;28;20021;-70
2022/05/20 09:52:46;;;;;;;5.35;2.88;;;27.50;47.60;;;;;;5029691;28;20057;-70
2022/05/20 09:55:25;;;;;;;4.63;2.28;;;27.70;47.40;;;;;;5046871;28;20386;-65
2022/05/20 09:57:55;;;;;;;5.88;2.55;;;28.00;47.60;;;;;;5071727;28;20031;-63
2022/05/20 10:00:32;;;;;;;5.65;2.47;;;28.40;47.30;;;;;;5050068;28;20132;-71
2022/05/20 10:03:22;;;;;;;3.72;1.90;;;28.40;43.30;;;;;;5031261;28;20026;-70
2022/05/20 10:06:13;;;;;;;5.82;2.60;;;28.40;42.00;;;;;;5031949;28;20119;-69
2022/05/20 10:08:46;;;;;;;3.67;1.97;;;28.50;42.90;;;;;;5031725;28;20024;-71
2022/05/20 10:11:25;;;;;;;5.00;2.10;;;28.60;44.40;;;;;;5031600;28;20349;-71
2022/05/20 10:14:15;;;;;;;4.10;2.03;;;28.60;43.60;;;;;;5031995;28;20025;-71
2022/05/20 10:17:07;;;;;;;3.50;2.05;;;28.70;47.30;;;;;;5031689;28;20475;-70
2022/05/20 10:20:00;;;;;;;5.63;2.83;;;28.80;47.90;;;;;;5031672;28;20060;-70
2022/05/20 10:22:41;;;;;;;5.45;2.63;;;28.40;45.30;;;;;;5031461;28;20033;-71
2022/05/20 10:25:29;;;;;;;5.40;2.30;;;28.40;44.60;;;;;;5031010;28;20116;-72
2022/05/20 10:34:16;;;;;;;5.30;2.10;;;28.60;42.00;;;;;;5051435;28;20041;-71
2022/05/20 10:37:05;;;;;;;5.60;2.20;;;28.10;42.20;;;;;;5052801;28;20081;-71
2022/05/20 10:39:48;;;;;;;4.63;2.10;;;28.10;41.90;;;;;;5012859;28;20057;-68
2022/05/20 10:42:42;;;;;;;3.95;2.35;;;28.20;40.00;;;;;;5013207;28;20069;-71
2022/05/20 10:51:24;;;;;;;5.68;2.33;;;28.70;45.80;;;;;;5013361;28;20052;-71
2022/05/20 10:54:13;;;;;;;2.35;1.67;;;28.80;46.90;;;;;;5013479;28;20038;-71
2022/05/20 10:57:07;;;;;;;61.67;13.18;;;28.70;40.50;;;;;;5013374;28;20491;-68
2022/05/20 10:59:45;;;;;;;24.77;6.35;;;28.70;42.90;;;;;;5011448;28;20044;-70
2022/05/20 11:02:48;;;;;;;6.40;2.13;;;28.80;44.70;;;;;;5013157;28;20125;-71
2022/05/20 11:05:34;;;;;;;7.15;2.13;;;28.80;42.00;;;;;;5029690;28;20033;-71
2022/05/20 11:08:13;;;;;;;3.65;2.05;;;28.90;43.40;;;;;;5022717;28;20088;-72
2022/05/20 11:10:59;;;;;;;4.03;2.13;;;28.70;41.30;;;;;;5012835;28;20108;-71
2022/05/20 11:13:41;;;;;;;4.90;1.90;;;28.70;42.30;;;;;;4997973;28;20515;-71
2022/05/20 11:16:19;;;;;;;4.18;2.10;;;28.80;43.80;;;;;;5038250;28;20115;-71
2022/05/20 11:19:11;;;;;;;2.63;1.70;;;28.60;42.20;;;;;;5055058;28;20070;-71
2022/05/20 11:21:39;;;;;;;4.75;2.22;;;28.80;41.30;;;;;;5051769;28;20063;-71
2022/05/20 11:24:05;;;;;;;2.78;1.88;;;28.70;41.70;;;;;;5054327;28;20033;-71
2022/05/20 11:26:41;;;;;;;4.50;2.00;;;28.90;41.80;;;;;;5054915;28;20028;-71
2022/05/20 11:29:12;;;;;;;4.00;2.30;;;28.70;39.20;;;;;;5051935;28;20066;-70
2022/05/20 11:31:48;;;;;;;5.50;2.00;;;28.40;40.60;;;;;;5053931;28;20112;-71
2022/05/20 11:34:38;;;;;;;4.53;2.20;;;28.20;41.70;;;;;;5055342;28;20104;-70
2022/05/20 11:37:16;;;;;;;3.65;1.85;;;27.90;40.70;;;;;;5054706;28;20025;-71
2022/05/20 11:39:57;;;;;;;4.80;1.70;;;27.80;41.40;;;;;;5054305;28;20028;-71
2022/05/20 11:42:47;;;;;;;3.72;2.00;;;27.60;39.80;;;;;;5055057;28;20037;-71
2022/05/20 11:45:47;;;;;;;2.70;1.70;;;27.70;41.60;;;;;;5053781;28;20036;-70
2022/05/20 11:48:26;;;;;;;4.97;1.98;;;27.70;41.20;;;;;;5054607;28;20045;-71
2022/05/20 11:51:04;;;;;;;4.22;2.17;;;27.90;41.40;;;;;;5054181;28;20033;-71
2022/05/20 11:53:38;;;;;;;3.20;2.20;;;28.00;40.20;;;;;;5054299;28;20043;-71
2022/05/20 11:56:48;;;;;;;3.85;2.17;;;28.20;43.60;;;;;;5054690;28;20211;-71
2022/05/20 11:59:40;;;;;;;3.75;2.00;;;28.50;41.80;;;;;;5054206;28;20463;-71
2022/05/20 12:02:07;;;;;;;;;;;28.60;41.50;;;;;;5054575;28;20041;-71
2022/05/20 12:04:34;;;;;;;4.22;2.15;;;28.40;40.90;;;;;;5054294;28;19951;-72
2022/05/20 12:07:06;;;;;;;4.93;2.00;;;28.40;42.20;;;;;;5054181;28;20033;-71
2022/05/20 12:09:32;;;;;;;5.97;1.98;;;28.30;41.60;;;;;;5052514;28;20032;-71
2022/05/20 12:12:30;;;;;;;3.35;1.73;;;28.50;42.10;;;;;;5053278;28;20033;-71
2022/05/20 12:14:56;;;;;;;5.13;2.05;;;28.50;40.40;;;;;;5054117;28;20021;-71
2022/05/20 12:17:50;;;;;;;5.13;1.52;;;28.70;41.30;;;;;;5053801;28;20029;-71
2022/05/20 12:26:10;;;;;;;4.05;2.28;;;28.70;41.40;;;;;;5054243;28;20037;-71
2022/05/20 12:28:39;;;;;;;2.60;1.63;;;28.60;41.20;;;;;;5054118;28;20037;-71
2022/05/20 12:31:07;;;;;;;3.60;2.20;;;28.60;41.00;;;;;;5053405;28;20498;-71
2022/05/20 12:33:57;;;;;;;4.50;2.10;;;28.50;40.60;;;;;;5053522;28;20037;-71
2022/05/20 12:36:29;;;;;;;3.03;1.67;;;28.50;40.80;;;;;;5053467;28;20374;-71
2022/05/20 12:39:07;;;;;;;2.47;1.65;;;28.60;42.00;;;;;;5053794;28;20378;-71
2022/05/20 12:41:39;;;;;;;3.17;1.77;;;28.50;40.50;;;;;;5053434;28;20041;-72
2022/05/20 12:44:20;;;;;;;;;;;28.60;41.00;;;;;;5054048;28;20025;-71
2022/05/20 12:46:48;;;;;;;2.92;1.92;;;28.70;42.10;;;;;;5052201;28;19908;-69
2022/05/20 12:49:14;;;;;;;4.03;2.08;;;28.50;40.90;;;;;;5050812;28;20111;-71
2022/05/20 12:51:47;;;;;;;5.40;1.83;;;28.60;41.70;;;;;;5053324;28;20032;-71
2022/05/20 12:54:16;;;;;;;2.97;1.67;;;28.80;41.00;;;;;;5052688;28;20100;-72
2022/05/20 12:56:42;;;;;;;1.65;1.48;;;28.80;41.80;;;;;;5053252;28;20021;-69
2022/05/20 12:59:22;;;;;;;2.58;1.50;;;28.90;43.40;;;;;;5052904;28;20387;-70
2022/05/20 13:01:57;;;;;;;4.22;1.75;;;29.00;42.50;;;;;;5053214;28;20041;-71
2022/05/20 13:04:26;;;;;;;2.28;1.45;;;29.10;42.10;;;;;;5052920;28;20091;-70
2022/05/20 13:06:52;;;;;;;2.58;1.40;;;28.90;38.30;;;;;;5052444;28;20025;-71
2022/05/20 13:09:28;;;;;;;1.85;1.52;;;28.70;38.30;;;;;;5052663;28;20479;-70
2022/05/20 13:12:02;;;;;;;2.20;1.10;;;28.80;39.90;;;;;;5052584;28;20453;-70
2022/05/20 13:14:30;;;;;;;2.92;1.23;;;28.80;41.00;;;;;;5052420;28;20422;-71
2022/05/20 13:16:58;;;;;;;2.17;1.40;;;28.90;40.40;;;;;;5052135;28;20078;-70
2022/05/20 13:19:50;;;;;;;3.55;2.00;;;28.80;39.50;;;;;;5042157;28;20045;-70
2022/05/20 13:22:21;;;;;;;;;;;28.90;42.20;;;;;;5052574;28;20128;-71
2022/05/20 13:24:53;;;;;;;2.20;1.30;;;28.90;41.40;;;;;;5035782;28;20000;-71
2022/05/20 13:27:21;;;;;;;6.00;1.73;;;29.00;41.70;;;;;;5037112;28;20071;-71
2022/05/20 13:29:48;;;;;;;2.72;1.50;;;29.10;41.50;;;;;;5032487;28;20051;-71
2022/05/20 13:32:27;;;;;;;2.42;1.60;;;29.10;39.90;;;;;;5032205;28;20423;-70
2022/05/20 13:34:54;;;;;;;2.05;1.55;;;29.20;41.80;;;;;;5032071;28;20037;-70
2022/05/20 13:37:37;;;;;;;3.45;1.77;;;29.10;40.00;;;;;;5032469;28;20025;-71
2022/05/20 13:40:14;;;;;;;2.35;1.45;;;29.20;42.70;;;;;;5031225;28;20447;-71
2022/05/20 13:42:47;;;;;;;3.13;1.73;;;29.40;42.10;;;;;;5032118;28;20037;-71
2022/05/20 13:45:15;;;;;;;5.80;1.80;;;29.50;43.00;;;;;;5031807;28;20037;-72
2022/05/20 13:50:26;;;;;;;3.72;1.67;;;29.20;41.90;;;;;;5048554;28;20104;-72
2022/05/20 13:52:55;;;;;;;2.35;1.60;;;29.20;41.50;;;;;;5051210;28;20025;-71
2022/05/20 13:55:25;;;;;;;2.47;1.30;;;29.20;40.70;;;;;;5052137;28;20025;-72